Time,TemperatureF,DewpointF,PressureIn,WindDirection,WindDirectionDegrees,WindSpeedMPH,WindSpeedGustMPH,Humidity,HourlyPrecipIn,Conditions,Clouds,dailyrainin,SoftwareType,DateUTC
2013-05-24 00:01:00,68.6,57.2,29.95,NNW,345,0.0,1.0,67,0.00,,SCT090,0.00,VWS V14.01,2013-05-24 04:01:00,
2013-05-24 00:06:00,68.5,57.1,29.95,NW,319,0.0,0.0,67,0.00,,SCT090,0.00,VWS V14.01,2013-05-24 04:06:00,
2013-05-24 00:11:00,68.4,56.6,29.96,North,8,1.0,2.0,66,0.00,,SCT090,0.00,VWS V14.01,2013-05-24 04:11:00,
2013-05-24 00:16:00,68.4,57.0,29.96,North,5,1.0,1.0,67,0.00,,SCT090,0.00,VWS V14.01,2013-05-24 04:16:00,
2013-05-24 00:21:00,68.1,57.2,29.96,North,5,0.0,1.0,68,0.00,,SCT090,0.00,VWS V14.01,2013-05-24 04:21:00,
2013-05-24 00:26:00,67.8,56.9,29.96,NW,314,0.0,2.0,68,0.00,,SCT090,0.00,VWS V14.01,2013-05-24 04:26:00,
2013-05-24 00:31:00,67.6,57.1,29.96,NW,313,0.0,0.0,69,0.00,,SCT090,0.00,VWS V14.01,2013-05-24 04:31:00,
2013-05-24 00:36:00,67.2,57.1,29.96,NW,314,0.0,0.0,70,0.00,,SCT090,0.00,VWS V14.01,2013-05-24 04:36:00,
2013-05-24 00:41:00,67.1,57.4,29.96,NE,35,0.0,1.0,71,0.00,,SCT090,0.00,VWS V14.01,2013-05-24 04:41:00,
2013-05-24 00:46:00,67.0,56.9,29.97,West,271,0.0,1.0,70,0.00,,SCT090,0.00,VWS V14.01,2013-05-24 04:46:00,
2013-05-24 00:51:00,66.9,56.8,29.97,West,271,0.0,0.0,70,0.00,,SCT090,0.00,VWS V14.01,2013-05-24 04:51:00,
2013-05-24 00:56:00,66.8,56.7,29.97,SSE,165,0.0,0.0,70,0.00,,SCT090,0.00,VWS V14.01,2013-05-24 04:56:00,
2013-05-24 01:01:00,66.8,57.1,29.98,South,181,0.0,1.0,71,0.00,,SCT090,0.00,VWS V14.01,2013-05-24 05:01:00,
2013-05-24 01:06:00,66.7,56.6,29.97,WNW,290,1.0,1.0,70,0.00,,SCT090,0.00,VWS V14.01,2013-05-24 05:06:00,
2013-05-24 01:11:00,66.7,56.6,29.98,WNW,291,0.0,1.0,70,0.00,,SCT090,0.00,VWS V14.01,2013-05-24 05:11:00,
2013-05-24 01:16:00,66.7,57.0,29.98,SW,236,0.0,1.0,71,0.00,,SCT090,0.00,VWS V14.01,2013-05-24 05:16:00,
2013-05-24 01:21:00,66.7,56.6,29.98,NNE,18,2.0,3.0,70,0.00,,SCT090,0.00,VWS V14.01,2013-05-24 05:21:00,
2013-05-24 01:26:00,66.6,56.9,29.98,NW,315,0.0,2.0,71,0.00,,SCT090,0.00,VWS V14.01,2013-05-24 05:26:00,
2013-05-24 01:31:00,66.5,56.4,29.98,WNW,299,0.0,1.0,70,0.00,,SCT090,0.00,VWS V14.01,2013-05-24 05:31:00,
2013-05-24 01:36:00,66.4,56.7,29.98,NNE,31,0.0,1.0,71,0.00,,SCT090,0.00,VWS V14.01,2013-05-24 05:36:00,
2013-05-24 01:41:00,66.2,56.5,29.98,NW,309,0.0,1.0,71,0.00,,SCT090,0.00,VWS V14.01,2013-05-24 05:41:00,
2013-05-24 01:46:00,65.9,56.2,29.98,NNW,347,0.0,1.0,71,0.00,,SCT090,0.00,VWS V14.01,2013-05-24 05:46:00,
2013-05-24 01:51:00,65.9,56.2,29.98,NNW,327,0.0,4.0,71,0.00,,SCT090,0.00,VWS V14.01,2013-05-24 05:51:00,
2013-05-24 01:56:00,65.8,56.2,29.98,NNE,20,0.0,2.0,71,0.00,,SCT090,0.00,VWS V14.01,2013-05-24 05:56:00,
2013-05-24 02:01:00,65.7,56.4,29.97,NW,315,0.0,3.0,72,0.00,,SCT090,0.00,VWS V14.01,2013-05-24 06:01:00,
2013-05-24 02:06:00,65.5,56.2,29.97,NW,322,0.0,3.0,72,0.00,,SCT090,0.00,VWS V14.01,2013-05-24 06:06:00,
2013-05-24 02:11:00,65.4,55.8,29.97,WSW,245,0.0,2.0,71,0.00,,SCT090,0.00,VWS V14.01,2013-05-24 06:11:00,
2013-05-24 02:16:00,65.3,55.7,29.97,SW,214,2.0,3.0,71,0.00,,SCT090,0.00,VWS V14.01,2013-05-24 06:16:00,
2013-05-24 02:21:00,65.3,56.0,29.98,NW,309,0.0,4.0,72,0.00,,SCT090,0.00,VWS V14.01,2013-05-24 06:21:00,
2013-05-24 02:26:00,65.1,55.5,29.97,SW,214,0.0,3.0,71,0.00,,SCT090,0.00,VWS V14.01,2013-05-24 06:26:00,
2013-05-24 02:31:00,64.9,56.0,29.98,NNE,12,0.0,3.0,73,0.00,,SCT090,0.00,VWS V14.01,2013-05-24 06:31:00,
2013-05-24 02:36:00,64.8,55.6,29.97,NW,321,1.0,2.0,72,0.00,,SCT090,0.00,VWS V14.01,2013-05-24 06:36:00,
2013-05-24 02:41:00,64.6,55.4,29.97,NW,311,0.0,2.0,72,0.00,,SCT090,0.00,VWS V14.01,2013-05-24 06:41:00,
2013-05-24 02:46:00,64.4,55.9,29.97,NE,46,0.0,1.0,74,0.00,,SCT090,0.00,VWS V14.01,2013-05-24 06:46:00,
2013-05-24 02:51:00,64.2,55.8,29.97,NW,321,0.0,4.0,74,0.00,,SCT090,0.00,VWS V14.01,2013-05-24 06:51:00,
2013-05-24 02:56:00,64.0,55.2,29.97,ESE,110,0.0,3.0,73,0.00,,SCT090,0.00,VWS V14.01,2013-05-24 06:56:00,
2013-05-24 03:01:00,63.9,55.5,29.97,NNE,31,0.0,3.0,74,0.00,,SCT090,0.00,VWS V14.01,2013-05-24 07:01:00,
2013-05-24 03:06:00,63.8,55.4,29.97,North,9,0.0,3.0,74,0.00,,SCT090,0.00,VWS V14.01,2013-05-24 07:06:00,
2013-05-24 03:11:00,63.7,55.3,29.97,NNW,329,2.0,3.0,74,0.00,,SCT090,0.00,VWS V14.01,2013-05-24 07:11:00,
2013-05-24 03:16:00,63.7,55.3,29.98,NNE,32,0.0,3.0,74,0.00,,SCT090,0.00,VWS V14.01,2013-05-24 07:16:00,
2013-05-24 03:21:00,63.5,55.1,29.97,North,354,0.0,1.0,74,0.00,,SCT090,0.00,VWS V14.01,2013-05-24 07:21:00,
2013-05-24 03:26:00,63.3,55.2,29.98,NNW,338,0.0,3.0,75,0.00,,SCT090,0.00,VWS V14.01,2013-05-24 07:26:00,
2013-05-24 03:31:00,63.1,55.1,29.98,WNW,288,1.0,2.0,75,0.00,,SCT090,0.00,VWS V14.01,2013-05-24 07:31:00,
2013-05-24 03:36:00,62.0,54.0,29.98,SSE,159,1.0,3.0,75,0.00,,SCT090,0.00,VWS V14.01,2013-05-24 07:36:00,
2013-05-24 03:41:00,63.5,56.2,29.98,NNW,339,0.0,0.0,77,0.00,,SCT090,0.00,VWS V14.01,2013-05-24 07:41:00,
2013-05-24 03:46:00,63.5,56.2,29.98,NNW,339,0.0,0.0,77,0.00,,SCT090,0.00,VWS V14.01,2013-05-24 07:46:00,
2013-05-24 03:51:00,63.5,56.2,29.98,NNW,339,0.0,0.0,77,0.00,,SCT090,0.00,VWS V14.01,2013-05-24 07:51:00,
2013-05-24 03:56:00,63.5,56.2,29.99,NNW,339,0.0,0.0,77,0.00,,SCT090,0.00,VWS V14.01,2013-05-24 07:56:00,
2013-05-24 04:01:00,63.5,56.2,29.99,NNW,339,0.0,0.0,77,0.00,,SCT090,0.00,VWS V14.01,2013-05-24 08:01:00,
2013-05-24 04:06:00,63.5,56.2,29.99,NNW,339,0.0,0.0,77,0.00,,SCT090,0.00,VWS V14.01,2013-05-24 08:06:00,
2013-05-24 04:11:00,63.5,56.2,29.99,NNW,339,0.0,0.0,77,0.00,,SCT090,0.00,VWS V14.01,2013-05-24 08:11:00,
2013-05-24 04:16:00,63.5,56.2,29.99,NNW,339,0.0,0.0,77,0.00,,SCT090,0.00,VWS V14.01,2013-05-24 08:16:00,
2013-05-24 04:21:00,63.5,56.2,30.00,NNW,339,0.0,0.0,77,0.00,,SCT090,0.00,VWS V14.01,2013-05-24 08:21:00,
2013-05-24 04:26:00,63.5,56.2,30.00,NNW,339,0.0,0.0,77,0.00,,SCT090,0.00,VWS V14.01,2013-05-24 08:26:00,
2013-05-24 04:31:00,63.5,56.2,30.00,NNW,339,0.0,0.0,77,0.00,,SCT090,0.00,VWS V14.01,2013-05-24 08:31:00,
2013-05-24 04:36:00,63.5,56.2,30.00,NNW,339,0.0,0.0,77,0.00,,SCT090,0.00,VWS V14.01,2013-05-24 08:36:00,
2013-05-24 04:41:00,63.5,56.2,30.00,NNW,339,0.0,0.0,77,0.00,,SCT090,0.00,VWS V14.01,2013-05-24 08:41:00,
2013-05-24 04:46:00,63.5,56.2,30.00,NNW,339,0.0,0.0,77,0.00,,SCT090,0.00,VWS V14.01,2013-05-24 08:46:00,
2013-05-24 04:51:00,63.5,56.2,30.00,NNW,339,0.0,0.0,77,0.00,,SCT090,0.00,VWS V14.01,2013-05-24 08:51:00,
2013-05-24 04:56:00,63.5,56.2,29.99,NNW,339,0.0,0.0,77,0.00,,SCT090,0.00,VWS V14.01,2013-05-24 08:56:00,
2013-05-24 05:01:00,63.5,56.2,30.00,NNW,339,0.0,0.0,77,0.00,,SCT090,0.00,VWS V14.01,2013-05-24 09:01:00,
2013-05-24 05:06:00,63.5,56.2,29.99,NNW,339,0.0,0.0,77,0.00,,SCT090,0.00,VWS V14.01,2013-05-24 09:06:00,
2013-05-24 05:11:00,63.5,56.2,29.99,NNW,339,0.0,0.0,77,0.00,,SCT090,0.00,VWS V14.01,2013-05-24 09:11:00,
2013-05-24 05:16:00,63.5,56.2,29.99,NNW,339,0.0,0.0,77,0.00,,SCT090,0.00,VWS V14.01,2013-05-24 09:16:00,
2013-05-24 05:21:00,63.5,56.2,30.00,NNW,339,0.0,0.0,77,0.00,,SCT090,0.00,VWS V14.01,2013-05-24 09:21:00,
2013-05-24 05:26:00,63.5,56.2,29.99,NNW,339,0.0,0.0,77,0.00,,SCT090,0.00,VWS V14.01,2013-05-24 09:26:00,
2013-05-24 05:31:00,63.5,56.2,30.00,NNW,339,0.0,0.0,77,0.00,,SCT090,0.00,VWS V14.01,2013-05-24 09:31:00,
2013-05-24 05:36:00,63.5,56.2,30.00,NNW,339,0.0,0.0,77,0.00,,SCT090,0.00,VWS V14.01,2013-05-24 09:36:00,
2013-05-24 05:41:00,63.5,56.2,30.00,NNW,339,0.0,0.0,77,0.00,,SCT090,0.00,VWS V14.01,2013-05-24 09:41:00,
2013-05-24 05:46:00,63.5,56.2,30.00,NNW,339,0.0,0.0,77,0.00,,SCT090,0.00,VWS V14.01,2013-05-24 09:46:00,
2013-05-24 05:51:00,63.5,56.2,30.00,NNW,339,0.0,0.0,77,0.00,,SCT090,0.00,VWS V14.01,2013-05-24 09:51:00,
2013-05-24 05:56:00,63.5,56.2,30.01,NNW,339,0.0,0.0,77,0.00,,SCT090,0.00,VWS V14.01,2013-05-24 09:56:00,
2013-05-24 06:01:00,63.5,56.2,30.01,NNW,339,0.0,0.0,77,0.00,,SCT090,0.00,VWS V14.01,2013-05-24 10:01:00,
2013-05-24 06:06:00,63.5,56.2,30.01,NNW,339,0.0,0.0,77,0.00,,SCT090,0.00,VWS V14.01,2013-05-24 10:06:00,
2013-05-24 06:11:00,63.5,56.2,30.01,NNW,339,0.0,0.0,77,0.00,,SCT090,0.00,VWS V14.01,2013-05-24 10:11:00,
2013-05-24 06:16:00,63.5,56.2,30.01,NNW,339,0.0,0.0,77,0.00,,SCT090,0.00,VWS V14.01,2013-05-24 10:16:00,
2013-05-24 06:21:00,63.5,56.2,30.01,NNW,339,0.0,0.0,77,0.00,,SCT090,0.00,VWS V14.01,2013-05-24 10:21:00,
2013-05-24 06:26:00,63.5,56.2,30.01,NNW,339,0.0,0.0,77,0.00,,SCT090,0.00,VWS V14.01,2013-05-24 10:26:00,
2013-05-24 06:31:00,63.5,56.2,30.02,NNW,339,0.0,0.0,77,0.00,,SCT090,0.00,VWS V14.01,2013-05-24 10:31:00,
2013-05-24 06:36:00,63.5,56.2,30.02,NNW,339,0.0,0.0,77,0.00,,SCT090,0.00,VWS V14.01,2013-05-24 10:36:00,
2013-05-24 06:41:00,63.5,56.2,30.02,NNW,339,0.0,0.0,77,0.00,,SCT090,0.00,VWS V14.01,2013-05-24 10:41:00,
2013-05-24 06:46:00,63.5,56.2,30.02,NNW,339,0.0,0.0,77,0.00,,SCT090,0.00,VWS V14.01,2013-05-24 10:46:00,
2013-05-24 06:51:00,63.5,56.2,30.02,NNW,339,0.0,0.0,77,0.00,,SCT090,0.00,VWS V14.01,2013-05-24 10:51:00,
2013-05-24 06:56:00,63.5,56.2,30.02,NNW,339,0.0,0.0,77,0.00,,SCT090,0.00,VWS V14.01,2013-05-24 10:56:00,
2013-05-24 07:01:00,63.5,56.2,30.02,NNW,339,0.0,0.0,77,0.00,,SCT090,0.00,VWS V14.01,2013-05-24 11:01:00,
2013-05-24 07:06:00,63.5,56.2,30.03,NNW,339,0.0,0.0,77,0.00,,SKC,0.00,VWS V14.01,2013-05-24 11:06:00,
2013-05-24 07:11:00,63.5,56.2,30.03,NNW,339,0.0,0.0,77,0.00,,SKC,0.00,VWS V14.01,2013-05-24 11:11:00,
2013-05-24 07:16:00,63.5,56.2,30.03,NNW,339,0.0,0.0,77,0.00,,SKC,0.00,VWS V14.01,2013-05-24 11:16:00,
2013-05-24 07:21:00,63.5,56.2,30.04,NNW,339,0.0,0.0,77,0.00,,SKC,0.00,VWS V14.01,2013-05-24 11:21:00,
2013-05-24 07:26:00,63.5,56.2,30.04,NNW,339,0.0,0.0,77,0.00,,SKC,0.00,VWS V14.01,2013-05-24 11:26:00,
2013-05-24 07:31:00,63.5,56.2,30.04,NNW,339,0.0,0.0,77,0.00,,SKC,0.00,VWS V14.01,2013-05-24 11:31:00,
2013-05-24 07:36:00,63.5,56.2,30.04,NNW,339,0.0,0.0,77,0.00,,SKC,0.00,VWS V14.01,2013-05-24 11:36:00,
2013-05-24 07:41:00,63.5,56.2,30.04,NNW,339,0.0,0.0,77,0.00,,SKC,0.00,VWS V14.01,2013-05-24 11:41:00,
2013-05-24 07:46:00,63.5,56.2,30.04,NNW,339,0.0,0.0,77,0.00,,SKC,0.00,VWS V14.01,2013-05-24 11:46:00,
2013-05-24 07:51:00,61.9,56.0,30.04,NNE,14,0.0,0.0,81,0.00,,SKC,0.00,VWS V14.01,2013-05-24 11:51:00,
2013-05-24 07:56:00,62.5,56.2,30.05,NNW,328,0.0,2.0,80,0.00,,SKC,0.00,VWS V14.01,2013-05-24 11:56:00,
2013-05-24 08:01:00,62.7,56.5,30.05,NE,46,1.0,1.0,80,0.00,,SKC,0.00,VWS V14.01,2013-05-24 12:01:00,
2013-05-24 08:06:00,63.2,56.9,30.05,NE,43,0.0,1.0,80,0.00,,SKC,0.00,VWS V14.01,2013-05-24 12:06:00,
2013-05-24 08:11:00,63.8,56.8,30.05,ENE,74,5.0,6.0,78,0.00,,SKC,0.00,VWS V14.01,2013-05-24 12:11:00,
2013-05-24 08:16:00,63.9,56.6,30.05,NNW,342,0.0,3.0,77,0.00,,SKC,0.00,VWS V14.01,2013-05-24 12:16:00,
2013-05-24 08:21:00,64.3,57.0,30.06,SW,214,0.0,2.0,77,0.00,,SKC,0.00,VWS V14.01,2013-05-24 12:21:00,
2013-05-24 08:26:00,64.9,57.5,30.06,ENE,77,0.0,2.0,77,0.00,,SKC,0.00,VWS V14.01,2013-05-24 12:26:00,
2013-05-24 08:31:00,65.2,56.7,30.06,ENE,58,2.0,3.0,74,0.00,,SKC,0.00,VWS V14.01,2013-05-24 12:31:00,
2013-05-24 08:36:00,65.0,56.5,30.06,WSW,252,2.0,5.0,74,0.00,,SKC,0.00,VWS V14.01,2013-05-24 12:36:00,
2013-05-24 08:41:00,65.2,56.7,30.06,WNW,302,3.0,6.0,74,0.00,,SKC,0.00,VWS V14.01,2013-05-24 12:41:00,
2013-05-24 08:46:00,65.4,56.9,30.06,ENE,65,4.0,4.0,74,0.00,,SKC,0.00,VWS V14.01,2013-05-24 12:46:00,
2013-05-24 08:51:00,65.4,56.5,30.06,SW,231,2.0,6.0,73,0.00,,SKC,0.00,VWS V14.01,2013-05-24 12:51:00,
2013-05-24 08:56:00,65.6,56.7,30.06,ESE,119,1.0,3.0,73,0.00,,SKC,0.00,VWS V14.01,2013-05-24 12:56:00,
2013-05-24 09:01:00,66.0,56.7,30.07,ESE,106,1.0,4.0,72,0.00,,SKC,0.00,VWS V14.01,2013-05-24 13:01:00,
2013-05-24 09:06:00,66.5,56.4,30.07,NNW,347,5.0,9.0,70,0.00,,SCT027,0.00,VWS V14.01,2013-05-24 13:06:00,
2013-05-24 09:11:00,66.3,56.2,30.07,NNE,33,3.0,5.0,70,0.00,,SCT027,0.00,VWS V14.01,2013-05-24 13:11:00,
2013-05-24 09:16:00,66.4,56.3,30.08,NNW,342,2.0,6.0,70,0.00,,SCT027,0.00,VWS V14.01,2013-05-24 13:16:00,
2013-05-24 09:21:00,67.0,56.5,30.08,North,4,0.0,5.0,69,0.00,,SCT027,0.00,VWS V14.01,2013-05-24 13:21:00,
2013-05-24 09:26:00,67.1,57.0,30.08,SSW,197,1.0,4.0,70,0.00,,SCT027,0.00,VWS V14.01,2013-05-24 13:26:00,
2013-05-24 09:31:00,67.2,55.5,30.08,NE,35,2.0,6.0,66,0.00,,SCT027,0.00,VWS V14.01,2013-05-24 13:31:00,
2013-05-24 09:36:00,67.1,55.8,30.09,NNE,24,3.0,6.0,67,0.00,,BKN022,0.00,VWS V14.01,2013-05-24 13:36:00,
2013-05-24 09:41:00,67.2,55.9,30.09,NE,51,1.0,7.0,67,0.00,,BKN022,0.00,VWS V14.01,2013-05-24 13:41:00,
2013-05-24 09:46:00,67.5,55.3,30.09,NNW,334,0.0,4.0,65,0.00,,BKN022,0.00,VWS V14.01,2013-05-24 13:46:00,
2013-05-24 09:51:00,67.7,56.0,30.09,SW,226,1.0,6.0,66,0.00,,BKN022,0.00,VWS V14.01,2013-05-24 13:51:00,
2013-05-24 09:56:00,67.7,56.0,30.10,NNE,12,2.0,9.0,66,0.00,,BKN022,0.00,VWS V14.01,2013-05-24 13:56:00,
2013-05-24 10:01:00,67.8,55.2,30.10,NNE,14,1.0,5.0,64,0.00,,BKN022,0.00,VWS V14.01,2013-05-24 14:01:00,
2013-05-24 10:06:00,67.9,55.7,30.10,SSE,154,1.0,5.0,65,0.00,,BKN022,0.00,VWS V14.01,2013-05-24 14:06:00,
2013-05-24 10:11:00,67.8,55.6,30.10,WNW,286,1.0,6.0,65,0.00,,BKN022,0.00,VWS V14.01,2013-05-24 14:11:00,
2013-05-24 10:16:00,67.7,55.1,30.10,SSE,160,2.0,6.0,64,0.00,,BKN022,0.00,VWS V14.01,2013-05-24 14:16:00,
2013-05-24 10:21:00,67.4,55.2,30.10,NW,307,1.0,4.0,65,0.00,,BKN022,0.00,VWS V14.01,2013-05-24 14:21:00,
2013-05-24 10:26:00,67.9,54.8,30.10,NNW,330,0.0,6.0,63,0.00,,BKN022,0.00,VWS V14.01,2013-05-24 14:26:00,
2013-05-24 10:31:00,68.5,55.9,30.10,NNE,19,3.0,8.0,64,0.00,,BKN022,0.00,VWS V14.01,2013-05-24 14:31:00,
2013-05-24 10:36:00,68.6,56.0,30.11,WSW,254,2.0,5.0,64,0.00,,BKN022,0.00,VWS V14.01,2013-05-24 14:36:00,
2013-05-24 10:41:00,69.0,55.5,30.10,NNW,328,5.0,7.0,62,0.00,,BKN022,0.00,VWS V14.01,2013-05-24 14:41:00,
2013-05-24 10:46:00,68.8,53.9,30.11,West,269,3.0,8.0,59,0.00,,BKN022,0.00,VWS V14.01,2013-05-24 14:46:00,
2013-05-24 10:51:00,69.3,54.8,30.11,WNW,288,1.0,5.0,60,0.00,,BKN022,0.00,VWS V14.01,2013-05-24 14:51:00,
2013-05-24 10:56:00,69.5,55.0,30.11,WSW,250,1.0,5.0,60,0.00,,BKN022,0.00,VWS V14.01,2013-05-24 14:56:00,
2013-05-24 11:01:00,69.4,53.5,30.11,SSW,195,2.0,5.0,57,0.00,,BKN022,0.00,VWS V14.01,2013-05-24 15:01:00,
2013-05-24 11:06:00,69.2,54.3,30.11,West,269,2.0,5.0,59,0.00,,BKN022,0.00,VWS V14.01,2013-05-24 15:06:00,
2013-05-24 11:11:00,69.4,54.9,30.12,SW,217,1.0,6.0,60,0.00,,BKN022,0.00,VWS V14.01,2013-05-24 15:11:00,
2013-05-24 11:16:00,69.5,53.6,30.12,West,264,3.0,9.0,57,0.00,,BKN022,0.00,VWS V14.01,2013-05-24 15:16:00,
2013-05-24 11:21:00,69.7,53.8,30.12,WSW,256,6.0,6.0,57,0.00,,BKN022,0.00,VWS V14.01,2013-05-24 15:21:00,
2013-05-24 11:26:00,69.5,52.6,30.12,WNW,294,0.0,6.0,55,0.00,,BKN022,0.00,VWS V14.01,2013-05-24 15:26:00,
2013-05-24 11:31:00,69.9,53.0,30.12,East,97,2.0,3.0,55,0.00,,BKN022,0.00,VWS V14.01,2013-05-24 15:31:00,
2013-05-24 11:36:00,70.4,53.0,30.12,NE,50,5.0,7.0,54,0.00,,BKN022,0.00,VWS V14.01,2013-05-24 15:36:00,
2013-05-24 11:41:00,70.1,54.2,30.12,NE,37,2.0,6.0,57,0.00,,BKN022,0.00,VWS V14.01,2013-05-24 15:41:00,
2013-05-24 11:46:00,70.1,53.2,30.12,NE,37,2.0,5.0,55,0.00,,BKN022,0.00,VWS V14.01,2013-05-24 15:46:00,
2013-05-24 11:51:00,70.7,53.8,30.13,SW,221,3.0,4.0,55,0.00,,BKN022,0.00,VWS V14.01,2013-05-24 15:51:00,
2013-05-24 11:56:00,70.5,52.0,30.13,NE,45,2.0,7.0,52,0.00,,BKN022,0.00,VWS V14.01,2013-05-24 15:56:00,
2013-05-24 12:01:00,70.7,53.3,30.13,SSE,153,2.0,5.0,54,0.00,,BKN022,0.00,VWS V14.01,2013-05-24 16:01:00,
2013-05-24 12:06:00,70.9,55.4,30.13,East,89,2.0,7.0,58,0.00,,FEW040,0.00,VWS V14.01,2013-05-24 16:06:00,
2013-05-24 12:11:00,71.1,52.6,30.13,NW,316,3.0,6.0,52,0.00,,FEW040,0.00,VWS V14.01,2013-05-24 16:11:00,
2013-05-24 12:16:00,71.1,52.1,30.13,WSW,247,5.0,7.0,51,0.00,,FEW040,0.00,VWS V14.01,2013-05-24 16:16:00,
2013-05-24 12:21:00,71.2,52.2,30.13,NNW,332,2.0,4.0,51,0.00,,FEW040,0.00,VWS V14.01,2013-05-24 16:21:00,
2013-05-24 12:26:00,71.2,52.7,30.14,SW,231,1.0,14.0,52,0.00,,FEW040,0.00,VWS V14.01,2013-05-24 16:26:00,
2013-05-24 12:31:00,71.1,51.0,30.14,ENE,70,2.0,6.0,49,0.00,,FEW040,0.00,VWS V14.01,2013-05-24 16:31:00,
2013-05-24 12:36:00,71.0,53.0,30.13,North,1,1.0,5.0,53,0.00,,FEW040,0.00,VWS V14.01,2013-05-24 16:36:00,
2013-05-24 12:41:00,70.8,50.7,30.13,NW,314,2.0,6.0,49,0.00,,FEW040,0.00,VWS V14.01,2013-05-24 16:41:00,
2013-05-24 12:46:00,71.0,51.5,30.13,SW,235,1.0,6.0,50,0.00,,FEW040,0.00,VWS V14.01,2013-05-24 16:46:00,
2013-05-24 12:51:00,71.7,52.1,30.13,WSW,257,2.0,6.0,50,0.00,,FEW040,0.00,VWS V14.01,2013-05-24 16:51:00,
2013-05-24 12:56:00,72.4,51.6,30.13,SSE,167,1.0,3.0,48,0.00,,FEW040,0.00,VWS V14.01,2013-05-24 16:56:00,
2013-05-24 13:01:00,73.1,51.1,30.13,NW,312,1.0,6.0,46,0.00,,FEW040,0.00,VWS V14.01,2013-05-24 17:01:00,
2013-05-24 13:06:00,72.9,50.3,30.13,West,266,4.0,5.0,45,0.00,,SKC,0.00,VWS V14.01,2013-05-24 17:06:00,
2013-05-24 13:11:00,73.1,52.3,30.13,WSW,239,2.0,4.0,48,0.00,,SKC,0.00,VWS V14.01,2013-05-24 17:11:00,
2013-05-24 13:16:00,73.0,50.4,30.13,ENE,58,2.0,6.0,45,0.00,,SKC,0.00,VWS V14.01,2013-05-24 17:16:00,
2013-05-24 13:21:00,72.5,51.2,30.13,NNE,18,1.0,5.0,47,0.00,,SKC,0.00,VWS V14.01,2013-05-24 17:21:00,
2013-05-24 13:26:00,72.9,49.1,30.13,NE,37,3.0,7.0,43,0.00,,SKC,0.00,VWS V14.01,2013-05-24 17:26:00,
2013-05-24 13:31:00,72.4,50.5,30.13,NW,325,2.0,6.0,46,0.00,,SKC,0.00,VWS V14.01,2013-05-24 17:31:00,
2013-05-24 13:36:00,72.7,51.3,30.13,SW,214,2.0,5.0,47,0.00,,SKC,0.00,VWS V14.01,2013-05-24 17:36:00,
2013-05-24 13:41:00,72.8,51.4,30.13,SSW,200,0.0,4.0,47,0.00,,SKC,0.00,VWS V14.01,2013-05-24 17:41:00,
2013-05-24 13:46:00,73.1,52.3,30.13,SW,231,2.0,5.0,48,0.00,,SKC,0.00,VWS V14.01,2013-05-24 17:46:00,
2013-05-24 13:51:00,73.3,51.9,30.13,West,273,5.0,5.0,47,0.00,,SKC,0.00,VWS V14.01,2013-05-24 17:51:00,
2013-05-24 13:56:00,73.3,51.9,30.13,SSW,193,1.0,4.0,47,0.00,,SKC,0.00,VWS V14.01,2013-05-24 17:56:00,
2013-05-24 14:01:00,73.4,50.8,30.13,NW,314,1.0,8.0,45,0.00,,SKC,0.00,VWS V14.01,2013-05-24 18:01:00,
2013-05-24 14:06:00,73.7,52.2,30.13,WNW,295,1.0,4.0,47,0.00,,SKC,0.00,VWS V14.01,2013-05-24 18:06:00,
2013-05-24 14:11:00,74.0,53.1,30.13,SW,233,2.0,4.0,48,0.00,,SKC,0.00,VWS V14.01,2013-05-24 18:11:00,
2013-05-24 14:16:00,74.1,51.4,30.13,NNE,25,0.0,4.0,45,0.00,,SKC,0.00,VWS V14.01,2013-05-24 18:16:00,
2013-05-24 14:21:00,74.1,52.6,30.13,NNW,340,1.0,5.0,47,0.00,,SKC,0.00,VWS V14.01,2013-05-24 18:21:00,
2013-05-24 14:26:00,74.6,52.5,30.13,East,93,2.0,3.0,46,0.00,,SKC,0.00,VWS V14.01,2013-05-24 18:26:00,
2013-05-24 14:31:00,75.0,51.6,30.13,ENE,62,2.0,5.0,44,0.00,,SKC,0.00,VWS V14.01,2013-05-24 18:31:00,
2013-05-24 14:36:00,74.7,52.0,30.13,NW,312,2.0,5.0,45,0.00,,SKC,0.00,VWS V14.01,2013-05-24 18:36:00,
2013-05-24 14:41:00,74.6,50.7,30.13,NNW,340,3.0,3.0,43,0.00,,SKC,0.00,VWS V14.01,2013-05-24 18:41:00,
2013-05-24 14:46:00,74.6,51.9,30.13,WNW,292,3.0,5.0,45,0.00,,SKC,0.00,VWS V14.01,2013-05-24 18:46:00,
2013-05-24 14:51:00,75.0,51.0,30.13,West,265,3.0,5.0,43,0.00,,SKC,0.00,VWS V14.01,2013-05-24 18:51:00,
2013-05-24 14:56:00,75.1,51.1,30.12,WNW,290,0.0,7.0,43,0.00,,SKC,0.00,VWS V14.01,2013-05-24 18:56:00,
2013-05-24 15:01:00,75.0,51.6,30.13,NW,308,1.0,5.0,44,0.00,,SKC,0.00,VWS V14.01,2013-05-24 19:01:00,
2013-05-24 15:06:00,75.5,52.1,30.12,North,351,1.0,4.0,44,0.00,,SKC,0.00,VWS V14.01,2013-05-24 19:06:00,
2013-05-24 15:11:00,75.2,51.2,30.12,NNW,345,0.0,7.0,43,0.00,,SKC,0.00,VWS V14.01,2013-05-24 19:11:00,
2013-05-24 15:16:00,75.6,52.2,30.12,NNW,329,2.0,2.0,44,0.00,,SKC,0.00,VWS V14.01,2013-05-24 19:16:00,
2013-05-24 15:21:00,75.5,51.5,30.13,North,360,1.0,10.0,43,0.00,,SKC,0.00,VWS V14.01,2013-05-24 19:21:00,
2013-05-24 15:26:00,75.5,51.5,30.13,North,9,2.0,4.0,43,0.00,,SKC,0.00,VWS V14.01,2013-05-24 19:26:00,
2013-05-24 15:31:00,75.8,52.4,30.12,WSW,240,1.0,4.0,44,0.00,,SKC,0.00,VWS V14.01,2013-05-24 19:31:00,
2013-05-24 15:36:00,76.2,52.1,30.12,NW,311,2.0,4.0,43,0.00,,SKC,0.00,VWS V14.01,2013-05-24 19:36:00,
2013-05-24 15:41:00,76.3,52.2,30.12,NNE,13,2.0,3.0,43,0.00,,SKC,0.00,VWS V14.01,2013-05-24 19:41:00,
2013-05-24 15:46:00,75.8,51.1,30.12,NE,39,8.0,8.0,42,0.00,,SKC,0.00,VWS V14.01,2013-05-24 19:46:00,
2013-05-24 15:51:00,75.6,52.2,30.12,WNW,302,1.0,4.0,44,0.00,,SKC,0.00,VWS V14.01,2013-05-24 19:51:00,
2013-05-24 15:56:00,75.7,50.4,30.12,North,351,1.0,5.0,41,0.00,,SKC,0.00,VWS V14.01,2013-05-24 19:56:00,
2013-05-24 16:01:00,75.6,51.5,30.12,NW,309,2.0,4.0,43,0.00,,SKC,0.00,VWS V14.01,2013-05-24 20:01:00,
2013-05-24 16:06:00,76.2,51.5,30.12,NNW,338,2.0,3.0,42,0.00,,SKC,0.00,VWS V14.01,2013-05-24 20:06:00,
2013-05-24 16:11:00,76.2,50.8,30.12,NW,314,2.0,5.0,41,0.00,,SKC,0.00,VWS V14.01,2013-05-24 20:11:00,
2013-05-24 16:16:00,75.9,52.5,30.12,NNE,20,1.0,4.0,44,0.00,,SKC,0.00,VWS V14.01,2013-05-24 20:16:00,
2013-05-24 16:21:00,75.5,50.8,30.13,NNW,336,1.0,5.0,42,0.00,,SKC,0.00,VWS V14.01,2013-05-24 20:21:00,
2013-05-24 16:26:00,75.4,49.4,30.13,NW,324,2.0,5.0,40,0.00,,SKC,0.00,VWS V14.01,2013-05-24 20:26:00,
2013-05-24 16:31:00,75.3,52.5,30.13,NW,308,5.0,5.0,45,0.00,,SKC,0.00,VWS V14.01,2013-05-24 20:31:00,
2013-05-24 16:36:00,75.3,52.5,30.13,NE,41,2.0,6.0,45,0.00,,SKC,0.00,VWS V14.01,2013-05-24 20:36:00,
2013-05-24 16:41:00,75.4,51.4,30.13,WSW,257,2.0,5.0,43,0.00,,SKC,0.00,VWS V14.01,2013-05-24 20:41:00,
2013-05-24 16:46:00,75.6,50.3,30.13,SW,217,2.0,5.0,41,0.00,,SKC,0.00,VWS V14.01,2013-05-24 20:46:00,
2013-05-24 16:51:00,75.8,51.7,30.13,NNE,16,3.0,3.0,43,0.00,,SKC,0.00,VWS V14.01,2013-05-24 20:51:00,
2013-05-24 16:56:00,75.9,52.5,30.13,NW,320,2.0,4.0,44,0.00,,SKC,0.00,VWS V14.01,2013-05-24 20:56:00,
2013-05-24 17:01:00,75.7,50.4,30.13,NE,49,0.0,3.0,41,0.00,,SKC,0.00,VWS V14.01,2013-05-24 21:01:00,
2013-05-24 17:06:00,76.0,51.9,30.13,North,359,1.0,3.0,43,0.00,,SKC,0.00,VWS V14.01,2013-05-24 21:06:00,
2013-05-24 17:11:00,76.4,51.6,30.13,NNE,33,2.0,4.0,42,0.00,,SKC,0.00,VWS V14.01,2013-05-24 21:11:00,
2013-05-24 17:16:00,75.5,50.8,30.13,West,280,2.0,6.0,42,0.00,,SKC,0.00,VWS V14.01,2013-05-24 21:16:00,
2013-05-24 17:21:00,75.3,49.3,30.13,SW,226,4.0,4.0,40,0.00,,SKC,0.00,VWS V14.01,2013-05-24 21:21:00,
2013-05-24 17:26:00,75.3,51.3,30.13,NW,307,2.0,6.0,43,0.00,,SKC,0.00,VWS V14.01,2013-05-24 21:26:00,
2013-05-24 17:31:00,75.5,49.5,30.14,NE,40,4.0,4.0,40,0.00,,SKC,0.00,VWS V14.01,2013-05-24 21:31:00,
2013-05-24 17:36:00,74.8,50.2,30.14,WSW,257,1.0,6.0,42,0.00,,SKC,0.00,VWS V14.01,2013-05-24 21:36:00,
2013-05-24 17:41:00,74.8,50.8,30.14,West,271,2.0,5.0,43,0.00,,SKC,0.00,VWS V14.01,2013-05-24 21:41:00,
2013-05-24 17:46:00,74.9,49.6,30.14,NNW,335,1.0,4.0,41,0.00,,SKC,0.00,VWS V14.01,2013-05-24 21:46:00,
2013-05-24 17:51:00,74.9,50.3,30.14,SW,228,2.0,4.0,42,0.00,,SKC,0.00,VWS V14.01,2013-05-24 21:51:00,
2013-05-24 17:56:00,74.6,51.3,30.14,NW,323,1.0,3.0,44,0.00,,SKC,0.00,VWS V14.01,2013-05-24 21:56:00,
2013-05-24 18:01:00,74.5,53.0,30.13,NW,321,0.0,3.0,47,0.00,,SKC,0.00,VWS V14.01,2013-05-24 22:01:00,
2013-05-24 18:06:00,74.3,49.8,30.13,WSW,252,3.0,6.0,42,0.00,,SKC,0.00,VWS V14.01,2013-05-24 22:06:00,
2013-05-24 18:11:00,74.1,50.8,30.13,South,186,1.0,5.0,44,0.00,,SKC,0.00,VWS V14.01,2013-05-24 22:11:00,
2013-05-24 18:16:00,74.0,51.3,30.14,NNW,341,2.0,2.0,45,0.00,,SKC,0.00,VWS V14.01,2013-05-24 22:16:00,
2013-05-24 18:21:00,73.7,48.6,30.14,NNW,335,1.0,3.0,41,0.00,,SKC,0.00,VWS V14.01,2013-05-24 22:21:00,
2013-05-24 18:26:00,73.8,49.9,30.14,SE,139,0.0,2.0,43,0.00,,SKC,0.00,VWS V14.01,2013-05-24 22:26:00,
2013-05-24 18:31:00,74.1,50.8,30.14,North,354,1.0,3.0,44,0.00,,SKC,0.00,VWS V14.01,2013-05-24 22:31:00,
2013-05-24 18:36:00,73.7,49.8,30.14,NNW,328,1.0,6.0,43,0.00,,SKC,0.00,VWS V14.01,2013-05-24 22:36:00,
2013-05-24 18:41:00,73.3,50.1,30.14,West,269,1.0,3.0,44,0.00,,SKC,0.00,VWS V14.01,2013-05-24 22:41:00,
2013-05-24 18:46:00,73.2,49.4,30.14,ESE,115,0.0,3.0,43,0.00,,SKC,0.00,VWS V14.01,2013-05-24 22:46:00,
2013-05-24 18:51:00,72.7,49.5,30.14,SW,226,3.0,3.0,44,0.00,,SKC,0.00,VWS V14.01,2013-05-24 22:51:00,
2013-05-24 18:56:00,71.8,48.7,30.14,NNE,30,3.0,4.0,44,0.00,,SKC,0.00,VWS V14.01,2013-05-24 22:56:00,
2013-05-24 19:01:00,71.1,48.7,30.14,NNE,12,1.0,3.0,45,0.00,,SKC,0.00,VWS V14.01,2013-05-24 23:01:00,
2013-05-24 19:06:00,70.7,48.9,30.13,WNW,287,0.0,1.0,46,0.00,,SKC,0.00,VWS V14.01,2013-05-24 23:06:00,
2013-05-24 19:11:00,70.3,50.3,30.13,SSE,153,0.0,2.0,49,0.00,,SKC,0.00,VWS V14.01,2013-05-24 23:11:00,
2013-05-24 19:16:00,70.1,48.4,30.13,NNW,341,2.0,2.0,46,0.00,,SKC,0.00,VWS V14.01,2013-05-24 23:16:00,
2013-05-24 19:21:00,69.6,47.9,30.13,WNW,294,1.0,3.0,46,0.00,,SKC,0.00,VWS V14.01,2013-05-24 23:21:00,
2013-05-24 19:26:00,69.3,48.2,30.13,NNW,347,2.0,3.0,47,0.00,,SKC,0.00,VWS V14.01,2013-05-24 23:26:00,
2013-05-24 19:31:00,69.0,48.5,30.14,NNE,16,0.0,2.0,48,0.00,,SKC,0.00,VWS V14.01,2013-05-24 23:31:00,
2013-05-24 19:36:00,68.7,47.7,30.14,NNW,332,1.0,2.0,47,0.00,,SKC,0.00,VWS V14.01,2013-05-24 23:36:00,
2013-05-24 19:41:00,68.5,49.2,30.14,South,187,1.0,1.0,50,0.00,,SKC,0.00,VWS V14.01,2013-05-24 23:41:00,
2013-05-24 19:46:00,68.3,47.3,30.15,SSE,163,1.0,5.0,47,0.00,,SKC,0.00,VWS V14.01,2013-05-24 23:46:00,
2013-05-24 19:51:00,68.1,47.7,30.14,NNW,330,0.0,2.0,48,0.00,,SKC,0.00,VWS V14.01,2013-05-24 23:51:00,
2013-05-24 19:56:00,67.8,46.9,30.15,West,269,1.0,2.0,47,0.00,,SKC,0.00,VWS V14.01,2013-05-24 23:56:00,
2013-05-24 20:01:00,67.5,47.7,30.15,NNW,332,0.0,3.0,49,0.00,,SKC,0.00,VWS V14.01,2013-05-25 00:01:00,
2013-05-24 20:06:00,67.3,47.5,30.15,WNW,288,0.0,3.0,49,0.00,,SKC,0.00,VWS V14.01,2013-05-25 00:06:00,
2013-05-24 20:11:00,66.9,47.1,30.15,WSW,243,0.0,1.0,49,0.00,,SKC,0.00,VWS V14.01,2013-05-25 00:11:00,
2013-05-24 20:16:00,66.5,46.8,30.16,NW,306,0.0,3.0,49,0.00,,SKC,0.00,VWS V14.01,2013-05-25 00:16:00,
2013-05-24 20:21:00,66.2,46.5,30.15,ESE,107,0.0,2.0,49,0.00,,SKC,0.00,VWS V14.01,2013-05-25 00:21:00,
2013-05-24 20:26:00,65.9,46.8,30.15,WNW,288,0.0,3.0,50,0.00,,SKC,0.00,VWS V14.01,2013-05-25 00:26:00,
2013-05-24 20:31:00,65.7,46.6,30.16,SSW,211,1.0,3.0,50,0.00,,SKC,0.00,VWS V14.01,2013-05-25 00:31:00,
2013-05-24 20:36:00,65.3,46.7,30.16,South,191,0.0,1.0,51,0.00,,SKC,0.00,VWS V14.01,2013-05-25 00:36:00,
2013-05-24 20:41:00,65.0,46.5,30.16,NW,316,0.0,0.0,51,0.00,,SKC,0.00,VWS V14.01,2013-05-25 00:41:00,
2013-05-24 20:46:00,64.7,45.7,30.15,West,262,1.0,4.0,50,0.00,,SKC,0.00,VWS V14.01,2013-05-25 00:46:00,
2013-05-24 20:51:00,64.5,46.5,30.16,North,352,0.0,1.0,52,0.00,,SKC,0.00,VWS V14.01,2013-05-25 00:51:00,
2013-05-24 20:56:00,64.2,46.2,30.16,NNW,338,0.0,1.0,52,0.00,,SKC,0.00,VWS V14.01,2013-05-25 00:56:00,
2013-05-24 21:01:00,64.1,46.6,30.16,WSW,248,0.0,4.0,53,0.00,,SKC,0.00,VWS V14.01,2013-05-25 01:01:00,
2013-05-24 21:06:00,63.8,45.9,30.16,NW,310,0.0,2.0,52,0.00,,SKC,0.00,VWS V14.01,2013-05-25 01:06:00,
2013-05-24 21:11:00,63.7,45.8,30.16,SSW,201,0.0,1.0,52,0.00,,SKC,0.00,VWS V14.01,2013-05-25 01:11:00,
2013-05-24 21:16:00,63.5,46.1,30.16,North,7,0.0,4.0,53,0.00,,SKC,0.00,VWS V14.01,2013-05-25 01:16:00,
2013-05-24 21:21:00,63.4,46.0,30.16,NNW,335,0.0,1.0,53,0.00,,SKC,0.00,VWS V14.01,2013-05-25 01:21:00,
2013-05-24 21:26:00,63.2,46.3,30.17,NNW,336,0.0,1.0,54,0.00,,SKC,0.00,VWS V14.01,2013-05-25 01:26:00,
2013-05-24 21:31:00,63.0,46.6,30.17,North,10,0.0,1.0,55,0.00,,SKC,0.00,VWS V14.01,2013-05-25 01:31:00,
2013-05-24 21:36:00,62.8,45.9,30.16,North,4,1.0,3.0,54,0.00,,SKC,0.00,VWS V14.01,2013-05-25 01:36:00,
2013-05-24 21:41:00,62.7,45.8,30.16,South,188,0.0,1.0,54,0.00,,SKC,0.00,VWS V14.01,2013-05-25 01:41:00,
2013-05-24 21:46:00,62.5,45.7,30.16,NW,326,0.0,2.0,54,0.00,,SKC,0.00,VWS V14.01,2013-05-25 01:46:00,
2013-05-24 21:51:00,62.5,46.1,30.16,NNW,328,0.0,2.0,55,0.00,,SKC,0.00,VWS V14.01,2013-05-25 01:51:00,
2013-05-24 21:56:00,62.5,46.6,30.16,NW,315,0.0,3.0,56,0.00,,SKC,0.00,VWS V14.01,2013-05-25 01:56:00,
2013-05-24 22:01:00,62.4,46.5,30.16,NW,314,0.0,2.0,56,0.00,,SKC,0.00,VWS V14.01,2013-05-25 02:01:00,
2013-05-24 22:06:00,62.2,46.3,30.17,NW,312,1.0,1.0,56,0.00,,SKC,0.00,VWS V14.01,2013-05-25 02:06:00,
2013-05-24 22:11:00,62.0,47.1,30.17,WSW,253,0.0,3.0,58,0.00,,SKC,0.00,VWS V14.01,2013-05-25 02:11:00,
2013-05-24 22:16:00,61.7,46.3,30.17,WSW,253,0.0,1.0,57,0.00,,SKC,0.00,VWS V14.01,2013-05-25 02:16:00,
2013-05-24 22:21:00,61.3,46.4,30.18,SSE,147,0.0,1.0,58,0.00,,SKC,0.00,VWS V14.01,2013-05-25 02:21:00,
2013-05-24 22:26:00,61.0,47.0,30.18,SW,236,0.0,1.0,60,0.00,,SKC,0.00,VWS V14.01,2013-05-25 02:26:00,
2013-05-24 22:31:00,60.6,46.7,30.18,WSW,253,0.0,2.0,60,0.00,,SKC,0.00,VWS V14.01,2013-05-25 02:31:00,
2013-05-24 22:36:00,60.3,47.2,30.18,West,272,0.0,1.0,62,0.00,,SKC,0.00,VWS V14.01,2013-05-25 02:36:00,
2013-05-24 22:41:00,59.9,46.9,30.18,West,273,0.0,1.0,62,0.00,,SKC,0.00,VWS V14.01,2013-05-25 02:41:00,
2013-05-24 22:46:00,59.5,46.9,30.18,NNE,12,0.0,1.0,63,0.00,,SKC,0.00,VWS V14.01,2013-05-25 02:46:00,
2013-05-24 22:51:00,59.2,46.6,30.18,WNW,287,0.0,1.0,63,0.00,,SKC,0.00,VWS V14.01,2013-05-25 02:51:00,
2013-05-24 22:56:00,58.7,46.6,30.18,WNW,287,0.0,0.0,64,0.00,,SKC,0.00,VWS V14.01,2013-05-25 02:56:00,
2013-05-24 23:01:00,58.2,46.9,30.18,WNW,287,0.0,0.0,66,0.00,,SKC,0.00,VWS V14.01,2013-05-25 03:01:00,
2013-05-24 23:06:00,58.0,47.1,30.18,NW,304,0.0,0.0,67,0.00,,SKC,0.00,VWS V14.01,2013-05-25 03:06:00,
2013-05-24 23:11:00,58.1,47.2,30.18,North,359,1.0,1.0,67,0.00,,SKC,0.00,VWS V14.01,2013-05-25 03:11:00,
2013-05-24 23:16:00,58.4,47.5,30.18,NNE,25,1.0,1.0,67,0.00,,SKC,0.00,VWS V14.01,2013-05-25 03:16:00,
2013-05-24 23:21:00,58.8,47.5,30.18,NE,44,0.0,2.0,66,0.00,,SKC,0.00,VWS V14.01,2013-05-25 03:21:00,
2013-05-24 23:26:00,59.0,47.3,30.18,ENE,77,0.0,1.0,65,0.00,,SKC,0.00,VWS V14.01,2013-05-25 03:26:00,
2013-05-24 23:31:00,58.9,46.8,30.18,SSW,194,1.0,1.0,64,0.00,,SKC,0.00,VWS V14.01,2013-05-25 03:31:00,
2013-05-24 23:36:00,58.8,46.7,30.19,SW,214,1.0,1.0,64,0.00,,SKC,0.00,VWS V14.01,2013-05-25 03:36:00,
2013-05-24 23:41:00,58.6,46.5,30.19,WSW,258,0.0,1.0,64,0.00,,SKC,0.00,VWS V14.01,2013-05-25 03:41:00,
2013-05-24 23:46:00,58.2,46.9,30.19,WSW,257,0.0,0.0,66,0.00,,SKC,0.00,VWS V14.01,2013-05-25 03:46:00,
2013-05-24 23:51:00,58.0,47.5,30.19,WSW,257,0.0,1.0,68,0.00,,SKC,0.00,VWS V14.01,2013-05-25 03:51:00,
2013-05-24 23:56:00,57.6,46.7,30.20,SE,136,0.0,1.0,67,0.00,,SKC,0.00,VWS V14.01,2013-05-25 03:56:00,